Aviation Digital Data Service (ADDS)

Output produced by METARs form (0051 UTC 24 May 2022)
found at http://www.aviationweather.gov/metar/data/
 
KLAF 232320Z 2400/2424 05007KT P6SM FEW250 
     FM241600 08010KT P6SM FEW200 AMD LTD TO CLD VIS AND WIND 2401/2413
       
KLAL 232340Z 2400/2424 10005KT P6SM SCT050 BKN250 
     FM240300 VRB03KT P6SM BKN250 
     FM241400 13008KT P6SM SCT025 BKN250 
     TEMPO 2414/2416 BKN025 
     FM241600 14007KT P6SM SCT035 BKN250 
     FM241900 14007KT P6SM BKN060 AMD NOT SKED 2402/2411
       
KLAN 232325Z 2400/2424 07007KT P6SM BKN250
       
KLAR 232327Z 2400/2424 35010KT P6SM SCT070 
     FM241000 14006KT 5SM BR BKN050 
     FM241300 11006KT 2SM BR BKN040 OVC070 
     FM241500 25008KT 6SM BR BKN060 
     FM241800 08012KT P6SM OVC050 
     FM242100 11015G23KT P6SM BKN050 OVC100
       
KLAS 232320Z 2400/2506 08007KT P6SM FEW250 
     FM240400 VRB05KT P6SM FEW250 
     FM241800 09005KT P6SM SKC 
     FM250300 23005KT P6SM SKC
       
KLAX 232337Z 2400/2506 25010KT P6SM BKN012 
     FM240400 VRB03KT P6SM OVC010 
     FM241900 25010KT P6SM SCT016 
     FM250100 25008KT P6SM BKN012
       
KLBB 232340Z 2400/2424 14015G25KT P6SM VCTS SCT040CB BKN250 
     FM241000 07011KT P6SM -SHRA OVC010 
     FM241700 35015KT P6SM OVC025
       
KLBE 232323Z 2400/2424 06005KT P6SM OVC090 
     FM241200 11005KT P6SM BKN035 
     FM241500 13008G17KT P6SM BKN030 
     FM241800 13008G16KT P6SM BKN015 
     FM242100 12009G17KT P6SM SCT020
       
KLBF 232349Z 2400/2424 12012KT P6SM OVC021 
     FM241000 07005KT P6SM OVC009 
     FM241800 05012KT P6SM OVC020 
     FM242200 05012KT 5SM -RA BR OVC012
       
KLBL 240007Z 2400/2424 12013KT P6SM OVC014 
     FM240130 10012KT 6SM SHRA BR VCTS OVC009CB 
     FM240600 08013KT 3SM SHRA BR OVC005
       
KLBT 232320Z 2400/2424 16004KT P6SM BKN180 
     FM240600 15005KT P6SM -RA OVC026 
     FM240800 20003KT 6SM BR BKN015 
     FM241700 22009KT P6SM BKN035 
     FM242000 24008KT P6SM -SHRA BKN030 AMD NOT SKED
       
KLCK 232320Z 2400/2424 07006KT P6SM OVC060 
     FM240300 03007KT P6SM SCT250 
     FM241500 05006KT P6SM SCT045
       
KLCH 232344Z 2400/2424 07006KT P6SM SCT030 
     FM240700 11007KT P6SM BKN020 
     FM241400 17012G18KT 3SM TSRA SCT010 OVC020CB 
     FM241900 18014G22KT P6SM BKN070
       
KLEB 232327Z 2400/2424 VRB03KT P6SM SCT200
       
KLEE 232336Z 2400/2424 VRB04KT P6SM FEW050 
     FM241500 15010KT P6SM SCT040 SCT250
       
KLEX 232339Z 2400/2424 04011KT P6SM VCSH SCT025 OVC035 
     FM240200 05006KT P6SM OVC050 
     FM240900 06008KT P6SM BKN022 
     TEMPO 2409/2413 BKN015 
     FM241700 05006KT P6SM BKN050
       
TAF KLFI 231700Z 2317/2423 07012KT 9999 OVC024 QNH3016INS 
     BECMG 2401/2402 07010G15KT 8000 -SHRA BKN010 OVC015 QNH3013INS 
     BECMG 2405/2406 09012G18KT 8000 -SHRA BKN005 OVC010 QNH3010INS 
     BECMG 2413/2414 10015G25KT 6000 TSRA OVC005CB QNH3009INS 
     BECMG 2418/2419 10020G25KT 4800 -SHRA VCTS OVC005CB QNH3003INS TX22/2317Z
TN17/2405Z
       
KLFK 232339Z 2400/2424 10006KT P6SM OVC019 
     FM240200 10005KT P6SM BKN025 
     FM240800 10006KT P6SM BKN007 
     FM241500 13010KT P6SM VCTS SCT008 OVC014CB 
     FM241800 17012KT P6SM VCTS BKN025CB 
     FM242000 17011KT P6SM VCTS BKN035CB
       
KLFT 232344Z 2400/2424 VRB03KT P6SM BKN250 
     FM240900 VRB03KT P6SM OVC025 
     FM241400 19012G18KT P6SM VCTS BKN035CB 
     PROB30 2414/2420 3SM TSRA OVC025CB
       
KLGA 232322Z 2400/2506 01007KT P6SM FEW120 BKN200 
     FM240200 05006KT P6SM BKN100 
     FM241400 06010KT P6SM BKN100 
     FM241900 13011KT P6SM BKN100 
     FM250100 12008KT P6SM SCT250
       
KLGB 232337Z 2400/2424 20008KT P6SM SKC 
     FM240400 VRB03KT P6SM OVC010 
     FM242000 20008KT P6SM SCT015
       
KLGU 232320Z 2400/2424 34005KT P6SM FEW070 BKN250 
     FM240300 VRB04KT P6SM FEW080 
     FM241600 33011KT P6SM FEW080 FEW250
       
KLIT 232322Z 2400/2424 06007KT P6SM SCT025 BKN030 
     FM240400 VRB04KT P6SM BKN045 
     PROB30 2412/2418 4SM TSRA BR OVC010CB 
     FM241800 11009KT 6SM SHRA BR VCTS OVC025CB
       
KLLQ 232322Z 2400/2424 05007KT P6SM BKN025 
     PROB30 2412/2418 4SM TSRA BR OVC001CB 
     FM241800 14008KT 6SM SHRA BR VCTS BKN025CB 
     FM242200 18008KT 6SM SHRA BR VCTS BKN035CB WS020/23055KT
       
KLMT 232320Z 2400/2424 32013G22KT P6SM SKC 
     FM240500 VRB04KT P6SM SKC 
     FM242000 31010G17KT P6SM SKC
       
KLND 232320Z 2400/2424 24008KT P6SM -RA FEW025 BKN040 OVC050 
     FM240200 26007KT P6SM OVC050 
     FM240500 27005KT P6SM OVC100 
     FM241600 07010G20KT P6SM VCSH OVC070
       
KLNK 232320Z 2400/2424 12010KT P6SM OVC090 
     FM241400 07010KT 5SM -SHRA BR OVC050 
     FM241700 08014G22KT 2SM SHRA BR OVC025 
     FM241900 07015G24KT 1 1/2SM SHRA BR OVC008
       
KLNS 232321Z 2400/2424 33004KT P6SM VCSH SCT060 OVC100 
     FM241200 11004KT P6SM VCSH SCT025 OVC040
       
KLOZ 232320Z 2400/2424 02008KT P6SM VCSH OVC007 
     FM240900 VRB03KT 2SM BR BKN003 
     FM241100 VRB03KT 1/2SM FG BKN003 
     FM241300 VRB03KT 2SM BR BKN003 
     FM241600 VRB03KT P6SM BKN007
       
KLRD 232358Z 2400/2424 08015KT P6SM VCTS SCT040CB BKN100 
     TEMPO 2400/2404 VRB25G35KT 3SM TSRA BKN030CB 
     FM240800 10009KT P6SM VCSH BKN020 
     FM241200 14010KT P6SM SCT035
       
TAF KLRF 232300Z 2323/2505 06009KT 9999 SCT020 BKN080 QNH2998INS 
     BECMG 2408/2409 06009KT 9999 OVC015 QNH2996INS 
     BECMG 2411/2412 06008KT 9999 OVC010 QNH2994INS 
     BECMG 2416/2417 09009KT 9999 OVC015 QNH2986INS 
     BECMG 2419/2420 11010G15KT 9999 OVC020 QNH2975INS 
     BECMG 2422/2423 11009KT 9999 OVC025 QNH2975INS 
     TEMPO 2503/2505 14015G35KT 6000 TSRA OVC020CB TX25/2420Z TN17/2410Z
       
KLRU 232328Z 2400/2424 26017G25KT P6SM FEW200 
     FM240300 29010G20KT P6SM SKC 
     FM241800 27020G30KT P6SM SKC
       
KLSE 232320Z 2400/2424 12005KT P6SM BKN200 
     FM241600 11007KT P6SM BKN150
       
TAF KLSF 232100Z 2321/2503 22010KT 9999 -SHRA VCTS SCT030CB BKN120 510003
QNH2995INS 
     TEMPO 2321/2401 25012G22KT 8000 -TSRA SCT010 OVC020CB 
     BECMG 2402/2403 VRB06KT 9999 NSW FEW015 SCT060 WSCONDS QNH3000INS 
     BECMG 2405/2406 16005KT 4800 BR SCT008 BKN150 QNH2995INS 
     TEMPO 2408/2412 1600 BR BKN008 
     BECMG 2414/2415 18008KT 9999 NSW FEW012 SCT030 BKN100 QNH3000INS TX26/2319Z
TN19/2409Z LAST NO AMDS AFT 2403 NEXT 2413
       
TAF KLSV 232300Z 2323/2505 07010G15KT 9999 FEW220 QNH2981INS 
     BECMG 2407/2408 01015G25KT 9999 SKC 520009 QNH2983INS 
     BECMG 2413/2414 33007KT 9999 SKC QNH2993INS 
     BECMG 2418/2419 14010KT 9999 SKC QNH2987INS TX33/2323Z TN16/2412Z
       
TAF AMD KLTS 232216Z 2322/2423 10012KT 9999 OVC006 QNH2992INS 
     BECMG 2322/2323 12009KT 9999 OVC012 QNH2989INS 
     BECMG 2402/2403 12012KT 8000 -SHRA VCTS OVC010CB QNH2987INS 
     BECMG 2405/2406 18015G20KT 4800 -TSRA OVC003CB QNH2986INS 
     TEMPO 2409/2414 20025G35KT 3200 +TSRA OVC002CB 
     BECMG 2414/2415 16015KT 9000 -SHRA VCTS OVC015CB QNH2958INS 
     TEMPO 2416/2421 8000 -TSRA OVC012CB TX18/2412Z TN14/2322Z
       
TAF KLUF 232000Z 2320/2502 21010G18KT 9999 FEW120 SCT300 QNH2966INS 
     BECMG 2403/2404 22015G22KT 9999 BKN300 QNH2967INS 
     BECMG 2408/2409 VRB06KT 9999 BKN300 QNH2973INS 
     BECMG 2419/2420 21010G18KT 9999 BKN300 QNH2966INS TX35/2323Z TN17/2412Z
       
KLVK 232340Z 2400/2424 26013KT P6SM SKC 
     FM240400 29006KT P6SM SKC 
     FM240800 VRB03KT P6SM SKC WS020/36025KT 
     FM241500 VRB03KT P6SM SKC 
     FM241800 32007KT P6SM SKC
       
KLVM 232320Z 2400/2424 25011KT P6SM BKN100 
     FM240600 24008KT P6SM BKN110 
     FM241600 26009KT P6SM VCSH SCT070 BKN100
       
KLVS 232357Z 2400/2424 30015G30KT P6SM BKN110 
     FM240200 02011KT P6SM VCTS SCT040CB BKN070 
     TEMPO 2403/2405 VRB30G45KT -TSRA SCT030 OVC040CB 
     FM240600 06008KT P6SM SCT040 BKN070 
     FM241400 01010KT P6SM BKN080
       
KLWB 232339Z 2400/2424 10004KT 5SM -SHRA BR OVC010 
     FM240500 04005KT 4SM -SHRA BR OVC004 
     FM241300 05003KT 5SM BR OVC003 
     FM242000 10003KT P6SM OVC007
       
KLWS 232334Z 2400/2424 VRB05KT P6SM VCSH BKN090 BKN120 
     TEMPO 2401/2403 -SHRA OVC050 
     FM240400 VRB05KT P6SM BKN080 
     FM240900 VRB05KT P6SM FEW150
       
KLWT 232324Z 2400/2424 25007KT P6SM SCT100 
     FM242100 21007KT P6SM VCSH BKN080
       
KLYH 232339Z 2400/2424 02010G18KT 3SM SHRA BR SCT007 OVC012 
     FM240200 04012G22KT 4SM SHRA BR OVC008 
     FM240700 04008G18KT 3SM SHRA OVC005 
     FM241400 04009KT 5SM -DZ BR OVC008 
     FM242100 04008KT 6SM BR OVC012